Time;durP1;ratioP1;P1;durP2;ratioP2;P2;SDS_P1;SDS_P2;PMS_P1;PMS_P2;Temp;Humidity;BMP_temperature;BMP_pressure;BME280_temperature;BME280_humidity;BME280_pressure;Samples;Min_cycle;Max_cycle;Signal;HPM_P1;HPM_P2
2022/03/10 00:01:23;;;;;;;;;;;;;;;-144.19;100.00;78752.94;6156837;23;19916;-86
2022/03/10 00:03:50;;;;;;;;;;;;;;;-144.19;100.00;78756.88;6154143;23;19974;-84
2022/03/10 00:06:16;;;;;;;;;;;;;;;-144.19;100.00;78768.69;6180845;23;19916;-84
2022/03/10 00:08:42;;;;;;;;;;;;;;;-144.19;100.00;78774.59;6183226;23;20260;-85
2022/03/10 00:11:09;;;;;;;;;;;;;;;-144.19;100.00;78792.34;6183256;23;19926;-85
2022/03/10 00:13:35;;;;;;;;;;;;;;;-144.19;100.00;78796.28;6155774;23;20337;-85
2022/03/10 00:16:01;;;;;;;;;;;;;;;-144.19;100.00;78804.16;6182998;23;20383;-85
2022/03/10 00:18:28;;;;;;;;;;;;;;;-144.19;100.00;78823.84;6157180;23;19916;-85
2022/03/10 00:20:54;;;;;;;;;;;;;;;-144.19;100.00;78851.41;6183046;23;19916;-84
2022/03/10 00:23:20;;;;;;;;;;;;;;;-144.19;100.00;78827.78;6181636;23;19916;-84
2022/03/10 00:25:47;;;;;;;;;;;;;;;-144.19;100.00;78817.94;6181639;23;19920;-85
2022/03/10 00:28:13;;;;;;;;;;;;;;;-144.19;100.00;78847.47;6179732;23;20252;-84
2022/03/10 00:30:39;;;;;;;;;;;;;;;-144.19;100.00;78865.19;6156662;23;19916;-85
2022/03/10 00:33:05;;;;;;;;;;;;;;;-144.19;100.00;78877.03;6155862;23;19920;-85
2022/03/10 00:35:32;;;;;;;;;;;;;;;-144.19;100.00;78890.81;6157044;23;19916;-83
2022/03/10 00:37:58;;;;;;;;;;;;;;;-144.19;100.00;78912.47;6156748;23;20002;-84
2022/03/10 00:40:25;;;;;;;;;;;;;;;-144.19;100.00;78922.31;6156673;23;19992;-84
2022/03/10 00:42:51;;;;;;;;;;;;;;;-144.19;100.00;78934.13;6155950;23;20333;-83
2022/03/10 00:45:18;;;;;;;;;;;;;;;-144.19;100.00;78945.94;6183423;23;19916;-85
2022/03/10 00:47:44;;;;;;;;;;;;;;;-144.19;100.00;78963.69;6183310;23;19916;-84
2022/03/10 00:50:11;;;;;;;;;;;;;;;-144.19;100.00;78949.91;6183063;23;19939;-84
2022/03/10 00:52:40;;;;;;;;;;;;;;;-144.19;100.00;78942.00;6156252;23;19916;-85
2022/03/10 00:55:07;;;;;;;;;;;;;;;-144.19;100.00;78971.56;6183682;23;20264;-84
2022/03/10 00:57:34;;;;;;;;;;;;;;;-144.19;100.00;78969.59;6156725;23;19995;-84
2022/03/10 01:00:00;;;;;;;;;;;;;;;-144.19;100.00;78977.47;6184208;23;19916;-84
2022/03/10 01:02:29;;;;;;;;;;;;;;;-144.19;100.00;78977.47;6182831;23;19999;-84
2022/03/10 01:04:56;;;;;;;;;;;;;;;-144.19;100.00;78993.22;6156850;23;19928;-84
2022/03/10 01:07:22;;;;;;;;;;;;;;;-144.19;100.00;78985.34;6182547;23;19916;-84
2022/03/10 01:09:48;;;;;;;;;;;;;;;-144.19;100.00;78985.34;6182698;23;19916;-84
2022/03/10 01:12:15;;;;;;;;;;;;;;;-144.19;100.00;78989.28;6155131;23;20555;-84
2022/03/10 01:14:41;;;;;;;;;;;;;;;-144.19;100.00;78985.34;6183163;23;20250;-84
2022/03/10 01:17:07;;;;;;;;;;;;;;;-144.19;100.00;78993.22;6156622;23;19916;-85
2022/03/10 01:19:34;;;;;;;;;;;;;;;-144.19;100.00;79008.97;6181253;23;19917;-84
2022/03/10 01:22:00;;;;;;;;;;;;;;;-144.19;100.00;78995.19;6155432;23;19931;-85
2022/03/10 01:24:26;;;;;;;;;;;;;;;-144.19;100.00;79008.97;6182910;23;19919;-85
2022/03/10 01:26:53;;;;;;;;;;;;;;;-144.19;100.00;79001.09;6181916;23;19916;-84
2022/03/10 01:29:19;;;;;;;;;;;;;;;-144.19;100.00;79001.09;6179000;23;19920;-85
2022/03/10 01:31:46;;;;;;;;;;;;;;;-144.19;100.00;78999.13;6182116;23;19916;-85
2022/03/10 01:34:13;;;;;;;;;;;;;;;-144.19;100.00;79005.03;6153703;23;20371;-84
2022/03/10 01:36:40;;;;;;;;;;;;;;;-144.19;100.00;79020.81;6154990;23;19920;-84
2022/03/10 01:39:06;;;;;;;;;;;;;;;-144.19;100.00;79036.56;6155418;23;19926;-85
2022/03/10 01:41:34;;;;;;;;;;;;;;;-144.19;100.00;79046.41;6181722;23;19916;-85
2022/03/10 01:44:03;;;;;;;;;;;;;;;-144.19;100.00;79056.25;6153976;23;20245;-84
2022/03/10 01:46:30;;;;;;;;;;;;;;;-144.19;100.00;79038.53;6181435;23;20268;-85
2022/03/10 01:48:57;;;;;;;;;;;;;;;-144.19;100.00;79058.22;6154245;23;19920;-85
2022/03/10 01:51:24;;;;;;;;;;;;;;;-144.19;100.00;79056.25;6181878;23;19931;-84
2022/03/10 01:53:51;;;;;;;;;;;;;;;-144.19;100.00;79044.44;6154646;23;19917;-85
2022/03/10 01:56:18;;;;;;;;;;;;;;;-144.19;100.00;79028.69;6155088;23;19916;-84
2022/03/10 01:58:48;;;;;;;;;;;;;;;-144.19;100.00;79048.38;6182339;23;19920;-84
2022/03/10 02:01:15;;;;;;;;;;;;;;;-144.19;100.00;79036.56;6182103;23;19920;-84
2022/03/10 02:03:42;;;;;;;;;;;;;;;-144.19;100.00;79040.50;6181793;23;19935;-85
2022/03/10 02:06:10;;;;;;;;;;;;;;;-144.19;100.00;79038.53;6187096;23;19938;-85
2022/03/10 02:11:22;;;;;;;;;;;;;;;-144.19;100.00;79042.47;6183204;23;19916;-86
2022/03/10 02:13:48;;;;;;;;;;;;;;;-144.19;100.00;79066.09;6156033;23;20278;-86
2022/03/10 02:19:01;;;;;;;;;;;;;;;-144.19;100.00;79058.22;6182688;23;19970;-86
2022/03/10 02:21:27;;;;;;;;;;;;;;;-144.19;100.00;79060.19;6155696;23;19926;-86
2022/03/10 02:23:53;;;;;;;;;;;;;;;-144.19;100.00;79056.25;6155039;23;19916;-86
2022/03/10 02:26:20;;;;;;;;;;;;;;;-144.19;100.00;79072.00;6155916;23;19917;-87
2022/03/10 02:28:46;;;;;;;;;;;;;;;-144.19;100.00;79075.94;6179420;23;19920;-87
2022/03/10 02:31:15;;;;;;;;;;;;;;;-144.19;100.00;79083.81;6156770;23;19970;-86
2022/03/10 02:33:42;;;;;;;;;;;;;;;-144.19;100.00;79085.78;6155078;23;19917;-85
2022/03/10 02:36:08;;;;;;;;;;;;;;;-144.19;100.00;79093.69;6182357;23;19938;-86
2022/03/10 02:38:35;;;;;;;;;;;;;;;-144.19;100.00;79099.59;6182644;23;19916;-86
2022/03/10 02:41:01;;;;;;;;;;;;;;;-144.19;100.00;79105.50;6182188;23;19916;-86
2022/03/10 02:43:27;;;;;;;;;;;;;;;-144.19;100.00;79091.72;6181303;23;20098;-85
2022/03/10 02:45:54;;;;;;;;;;;;;;;-144.19;100.00;79089.72;6156686;23;20237;-85
2022/03/10 02:48:21;;;;;;;;;;;;;;;-144.19;100.00;79111.41;6180032;23;20309;-85
2022/03/10 02:50:47;;;;;;;;;;;;;;;-144.19;100.00;79105.50;6180523;23;19916;-85
2022/03/10 02:53:15;;;;;;;;;;;;;;;-144.19;100.00;79101.56;6154902;23;19927;-85
2022/03/10 02:55:43;;;;;;;;;;;;;;;-144.19;100.00;79075.94;6157076;23;19916;-85
2022/03/10 02:58:09;;;;;;;;;;;;;;;-144.19;100.00;79107.47;6185196;23;19920;-86
2022/03/10 03:00:36;;;;;;;;;;;;;;;-144.19;100.00;79113.38;6182348;23;20360;-86
2022/03/10 03:03:02;;;;;;;;;;;;;;;-144.19;100.00;79083.81;6183979;23;19924;-86
2022/03/10 03:05:28;;;;;;;;;;;;;;;-144.19;100.00;79072.00;6183982;23;20352;-85
2022/03/10 03:07:56;;;;;;;;;;;;;;;-144.19;100.00;79050.34;6158466;23;19917;-85
2022/03/10 03:10:22;;;;;;;;;;;;;;;-144.19;100.00;79036.56;6157122;23;19920;-87
2022/03/10 03:12:50;;;;;;;;;;;;;;;-144.19;100.00;79079.88;6157208;23;19920;-84
2022/03/10 03:15:17;;;;;;;;;;;;;;;-144.19;100.00;79111.41;6184545;23;19924;-86
2022/03/10 03:17:45;;;;;;;;;;;;;;;-144.19;100.00;79081.84;6182621;23;19951;-85
2022/03/10 03:20:14;;;;;;;;;;;;;;;-144.19;100.00;79095.66;6183825;23;19916;-85
2022/03/10 03:22:44;;;;;;;;;;;;;;;-144.19;100.00;79095.66;6156847;23;19950;-85
2022/03/10 03:25:11;;;;;;;;;;;;;;;-144.19;100.00;79115.34;6183363;23;19996;-85
2022/03/10 03:27:43;;;;;;;;;;;;;;;-144.19;100.00;79123.22;6181397;23;20402;-85
2022/03/10 03:30:10;;;;;;;;;;;;;;;-144.19;100.00;79117.31;6183822;23;19926;-85
2022/03/10 03:32:36;;;;;;;;;;;;;;;-144.19;100.00;79138.97;6191840;23;19991;-85
2022/03/10 03:35:03;;;;;;;;;;;;;;;-144.19;100.00;79140.94;6202989;23;19944;-85
2022/03/10 03:37:29;;;;;;;;;;;;;;;-144.19;100.00;79135.03;6175593;23;19920;-85
2022/03/10 03:39:55;;;;;;;;;;;;;;;-144.19;100.00;79133.06;6190103;23;20290;-84
2022/03/10 03:42:22;;;;;;;;;;;;;;;-144.19;100.00;79137.00;6187852;23;19938;-84
2022/03/10 03:44:48;;;;;;;;;;;;;;;-144.19;100.00;79156.72;6162963;23;19923;-85
2022/03/10 03:47:14;;;;;;;;;;;;;;;-144.19;100.00;79168.53;6162902;23;20359;-86
2022/03/10 03:49:40;;;;;;;;;;;;;;;-144.19;100.00;79166.56;6189105;23;19922;-85
2022/03/10 03:52:08;;;;;;;;;;;;;;;-144.19;100.00;79170.50;6187734;23;19983;-84
2022/03/10 03:54:34;;;;;;;;;;;;;;;-144.19;100.00;79162.63;6188219;23;20329;-84
2022/03/10 03:57:00;;;;;;;;;;;;;;;-144.19;100.00;79176.41;6186455;23;19916;-84
2022/03/10 03:59:27;;;;;;;;;;;;;;;-144.19;100.00;79170.50;6160070;23;19916;-85
2022/03/10 04:01:53;;;;;;;;;;;;;;;-144.19;100.00;79182.31;6188533;23;19923;-84
2022/03/10 04:04:21;;;;;;;;;;;;;;;-144.19;100.00;79174.44;6161098;23;19923;-85
2022/03/10 04:06:47;;;;;;;;;;;;;;;-144.19;100.00;79203.97;6161271;23;19920;-84
2022/03/10 04:09:14;;;;;;;;;;;;;;;-144.19;100.00;79182.31;6187159;23;19916;-86
2022/03/10 04:11:40;;;;;;;;;;;;;;;-144.19;100.00;79186.25;6188280;23;20050;-84
2022/03/10 04:14:07;;;;;;;;;;;;;;;-144.19;100.00;79186.25;6186003;23;20210;-86
2022/03/10 04:16:33;;;;;;;;;;;;;;;-144.19;100.00;79194.13;6186435;23;20347;-85
2022/03/10 04:18:59;;;;;;;;;;;;;;;-144.19;100.00;79202.00;6161774;23;19922;-84
2022/03/10 04:21:26;;;;;;;;;;;;;;;-144.19;100.00;79180.34;6160848;23;19916;-84
2022/03/10 04:23:52;;;;;;;;;;;;;;;-144.19;100.00;79190.19;6186735;23;20400;-84
2022/03/10 04:26:19;;;;;;;;;;;;;;;-144.19;100.00;79182.31;6186871;23;20307;-86
2022/03/10 04:28:46;;;;;;;;;;;;;;;-144.19;100.00;79205.94;6158599;23;20264;-86
2022/03/10 04:31:12;;;;;;;;;;;;;;;-144.19;100.00;79213.81;6184587;23;19922;-85
2022/03/10 04:33:39;;;;;;;;;;;;;;;-144.19;100.00;79207.91;6186474;23;19916;-86
2022/03/10 04:36:05;;;;;;;;;;;;;;;-144.19;100.00;79209.88;6186774;23;19922;-85
2022/03/10 04:38:31;;;;;;;;;;;;;;;-144.19;100.00;79237.47;6187045;23;19916;-85
2022/03/10 04:40:58;;;;;;;;;;;;;;;-144.19;100.00;79241.41;6159827;23;19920;-85
2022/03/10 04:43:24;;;;;;;;;;;;;;;-144.19;100.00;79202.00;6186068;23;19916;-85
2022/03/10 04:45:50;;;;;;;;;;;;;;;-144.19;100.00;79190.19;6184192;23;20303;-84
2022/03/10 04:48:16;;;;;;;;;;;;;;;-144.19;100.00;79184.28;6157846;23;19920;-84
2022/03/10 04:50:43;;;;;;;;;;;;;;;-144.19;100.00;79209.88;6183242;23;20054;-85
2022/03/10 04:53:09;;;;;;;;;;;;;;;-144.19;100.00;79235.50;6155706;23;20364;-84
2022/03/10 04:55:35;;;;;;;;;;;;;;;-144.19;100.00;79225.66;6182156;23;19916;-84
2022/03/10 04:58:02;;;;;;;;;;;;;;;-144.19;100.00;79215.78;6183378;23;19916;-84
2022/03/10 05:00:29;;;;;;;;;;;;;;;-144.19;100.00;79225.66;6183446;23;19999;-84
2022/03/10 05:02:55;;;;;;;;;;;;;;;-144.19;100.00;79231.56;6183443;23;19966;-86
2022/03/10 05:05:22;;;;;;;;;;;;;;;-144.19;100.00;79237.47;6185162;23;19963;-83
2022/03/10 05:07:48;;;;;;;;;;;;;;;-144.19;100.00;79237.47;6185345;23;19924;-87
2022/03/10 05:10:15;;;;;;;;;;;;;;;-144.19;100.00;79261.09;6172858;23;19969;-83
2022/03/10 05:12:43;;;;;;;;;;;;;;;-144.19;100.00;79259.13;6176340;23;19924;-83
2022/03/10 05:15:10;;;;;;;;;;;;;;;-144.19;100.00;79241.41;6150470;23;19924;-83
2022/03/10 05:17:37;;;;;;;;;;;;;;;-144.19;100.00;79229.59;6149739;23;19926;-83
2022/03/10 05:20:07;;;;;;;;;;;;;;;-144.19;100.00;79221.72;6172532;23;19924;-84
2022/03/10 05:22:41;;;;;;;;;;;;;;;-144.19;100.00;79209.88;6206808;23;19958;-83
2022/03/10 05:25:21;;;;;;;;;;;;;;;-144.19;100.00;79227.63;6184474;23;19947;-83
2022/03/10 05:27:49;;;;;;;;;;;;;;;-144.19;100.00;79272.91;6179399;23;19920;-87
2022/03/10 05:30:16;;;;;;;;;;;;;;;-144.19;100.00;79278.81;6180436;23;20488;-87
2022/03/10 05:32:44;;;;;;;;;;;;;;;-144.19;100.00;79265.03;6179724;23;19916;-83
2022/03/10 05:35:14;;;;;;;;;;;;;;;-144.19;100.00;79267.00;6206753;23;19922;-83
2022/03/10 05:37:42;;;;;;;;;;;;;;;-144.19;100.00;79261.09;6205921;23;19916;-84
2022/03/10 05:40:10;;;;;;;;;;;;;;;-144.19;100.00;79253.22;6204351;23;19916;-83
2022/03/10 05:42:46;;;;;;;;;;;;;;;-144.19;100.00;79265.03;6178632;23;19923;-83
2022/03/10 05:45:19;;;;;;;;;;;;;;;-144.19;100.00;79249.28;6179982;23;19969;-83
2022/03/10 05:47:48;;;;;;;;;;;;;;;-144.19;100.00;79257.16;6179950;23;19931;-84
2022/03/10 05:50:15;;;;;;;;;;;;;;;-144.19;100.00;79257.16;6205270;23;19939;-82
2022/03/10 05:52:45;;;;;;;;;;;;;;;-144.19;100.00;79272.91;6180620;23;19949;-83
2022/03/10 05:55:13;;;;;;;;;;;;;;;-144.19;100.00;79261.09;6203791;23;19916;-84
2022/03/10 05:58:00;;;;;;;;;;;;;;;-144.19;100.00;79237.47;6174126;23;19916;-84
2022/03/10 06:00:28;;;;;;;;;;;;;;;-144.19;100.00;79225.66;6198196;23;19916;-83
2022/03/10 06:02:54;;;;;;;;;;;;;;;-144.19;100.00;79202.00;6177517;23;19939;-84
2022/03/10 06:05:21;;;;;;;;;;;;;;;-144.19;100.00;79184.28;6202900;23;19916;-83
2022/03/10 06:07:48;;;;;;;;;;;;;;;-144.19;100.00;79170.50;6177733;23;19916;-84
2022/03/10 06:10:15;;;;;;;;;;;;;;;-144.19;100.00;79186.25;6204411;23;19922;-83
2022/03/10 06:12:54;;;;;;;;;;;;;;;-144.19;100.00;79209.88;6177980;23;19916;-83
2022/03/10 06:15:24;;;;;;;;;;;;;;;-144.19;100.00;79225.66;6203659;23;19988;-83
2022/03/10 06:17:51;;;;;;;;;;;;;;;-144.19;100.00;79243.38;6179763;23;19990;-84
2022/03/10 06:20:19;;;;;;;;;;;;;;;-144.19;100.00;79229.59;6202306;23;19959;-83
2022/03/10 06:22:48;;;;;;;;;;;;;;;-144.19;100.00;79198.06;6179349;23;19926;-82
2022/03/10 06:25:14;;;;;;;;;;;;;;;-144.19;100.00;79235.50;6205090;23;19916;-83
2022/03/10 06:27:41;;;;;;;;;;;;;;;-144.19;100.00;79249.28;6204769;23;19943;-83
2022/03/10 06:30:09;;;;;;;;;;;;;;;-144.19;100.00;79253.22;6203726;23;19916;-84
2022/03/10 06:32:36;;;;;;;;;;;;;;;-144.19;100.00;79241.41;6178061;23;20018;-83
2022/03/10 06:35:03;;;;;;;;;;;;;;;-144.19;100.00;79237.47;6179986;23;19916;-84
2022/03/10 06:37:31;;;;;;;;;;;;;;;-144.19;100.00;79257.16;6175709;23;19935;-83
2022/03/10 06:39:58;;;;;;;;;;;;;;;-144.19;100.00;79263.06;6172469;23;19916;-84
2022/03/10 06:42:30;;;;;;;;;;;;;;;-144.19;100.00;79245.34;6202722;23;20416;-83
2022/03/10 06:44:57;;;;;;;;;;;;;;;-144.19;100.00;79231.56;6179500;23;20233;-84
2022/03/10 06:47:25;;;;;;;;;;;;;;;-144.19;100.00;79217.75;6205101;23;19942;-82
2022/03/10 06:49:52;;;;;;;;;;;;;;;-144.19;100.00;79194.13;6179099;23;19964;-84
2022/03/10 06:52:20;;;;;;;;;;;;;;;-144.19;100.00;79174.44;6204916;23;20246;-84
2022/03/10 06:54:47;;;;;;;;;;;;;;;-144.19;100.00;79172.47;6205631;23;19967;-86
2022/03/10 06:57:16;;;;;;;;;;;;;;;-144.19;100.00;79158.69;6206708;23;19921;-83
2022/03/10 06:59:43;;;;;;;;;;;;;;;-144.19;100.00;79148.81;6206081;23;19939;-83
2022/03/10 07:02:15;;;;;;;;;;;;;;;-144.19;100.00;79140.94;6180669;23;19923;-84
2022/03/10 07:05:07;;;;;;;;;;;;;;;-144.19;100.00;79127.16;6206825;23;19955;-83
2022/03/10 07:07:37;;;;;;;;;;;;;;;-144.19;100.00;79127.16;6180302;23;19916;-84
2022/03/10 07:10:13;;;;;;;;;;;;;;;-144.19;100.00;79125.19;6179482;23;19916;-83
2022/03/10 07:12:41;;;;;;;;;;;;;;;-144.19;100.00;79097.63;6180352;23;19916;-83
2022/03/10 07:15:09;;;;;;;;;;;;;;;-144.19;100.00;79075.94;6180587;23;19916;-82
2022/03/10 07:17:36;;;;;;;;;;;;;;;-144.19;100.00;79048.38;6173298;23;19922;-82
2022/03/10 07:20:25;;;;;;;;;;;;;;;-144.19;100.00;79040.50;6179608;23;19924;-83
2022/03/10 07:22:53;;;;;;;;;;;;;;;-144.19;100.00;79024.75;6205230;23;19916;-84
2022/03/10 07:25:20;;;;;;;;;;;;;;;-144.19;100.00;79005.03;6179396;23;19939;-82
2022/03/10 07:27:47;;;;;;;;;;;;;;;-144.19;100.00;78989.28;6205192;23;19927;-82
2022/03/10 07:30:13;;;;;;;;;;;;;;;-144.19;100.00;78965.66;6181270;23;19916;-83
2022/03/10 07:32:41;;;;;;;;;;;;;;;-144.19;100.00;78953.84;6178678;23;19939;-82
2022/03/10 07:35:08;;;;;;;;;;;;;;;-144.19;100.00;78942.00;6205805;23;19916;-84
2022/03/10 07:37:38;;;;;;;;;;;;;;;-144.19;100.00;78922.31;6180421;23;19967;-84
2022/03/10 07:40:08;;;;;;;;;;;;;;;-144.19;100.00;78910.50;6181461;23;19939;-84
2022/03/10 07:42:37;;;;;;;;;;;;;;;-144.19;100.00;78892.78;6180204;23;19923;-84
2022/03/10 07:45:04;;;;;;;;;;;;;;;-144.19;100.00;78875.06;6205741;23;19916;-84
2022/03/10 07:47:31;;;;;;;;;;;;;;;-144.19;100.00;78831.72;6182514;23;19916;-84
2022/03/10 07:50:02;;;;;;;;;;;;;;;-144.19;100.00;78774.59;6182811;23;19916;-82
2022/03/10 07:52:29;;;;;;;;;;;;;;;-144.19;100.00;78749.00;6179460;23;19967;-83
2022/03/10 07:54:56;;;;;;;;;;;;;;;-144.19;100.00;78691.88;6175517;23;19959;-84
2022/03/10 07:57:23;;;;;;;;;;;;;;;-144.19;100.00;78670.22;6182271;23;19950;-84
2022/03/10 07:59:59;;;;;;;;;;;;;;;-144.19;100.00;78654.47;6206221;23;19916;-83
2022/03/10 08:02:29;;;;;;;;;;;;;;;-144.19;100.00;78630.84;6182271;23;19916;-84
2022/03/10 08:04:58;;;;;;;;;;;;;;;-144.19;100.00;78619.03;6181640;23;19916;-86
2022/03/10 08:07:32;;;;;;;;;;;;;;;-144.19;100.00;78611.13;6207923;23;19920;-85
2022/03/10 08:10:03;;;;;;;;;;;;;;;-144.19;100.00;78591.44;6207231;23;19951;-84
2022/03/10 08:12:32;;;;;;;;;;;;;;;-144.19;100.00;78556.00;6182178;23;19963;-85
2022/03/10 08:15:00;;;;;;;;;;;;;;;-144.19;100.00;78532.38;6181589;23;19927;-84
2022/03/10 08:17:28;;;;;;;;;;;;;;;-144.19;98.47;78512.66;6182043;23;19943;-83
2022/03/10 08:19:55;;;;;;;;;;;;;;;-144.19;96.94;78500.84;6206371;23;19916;-84
2022/03/10 08:22:24;;;;;;;;;;;;;;;-144.19;94.88;78477.22;6206673;23;19916;-84
2022/03/10 08:24:55;;;;;;;;;;;;;;;-144.19;93.92;78433.91;6207147;23;19920;-83
2022/03/10 08:27:24;;;;;;;;;;;;;;;-144.19;92.76;78433.91;6181555;23;19916;-83
2022/03/10 08:29:54;;;;;;;;;;;;;;;-144.19;89.89;78400.41;6174020;23;19994;-82
2022/03/10 08:32:25;;;;;;;;;;;;;;;-144.19;88.96;78388.59;6176507;23;19915;-84
2022/03/10 08:35:10;;;;;;;;;;;;;;;-144.19;88.59;78357.09;6183140;23;19916;-84
2022/03/10 08:37:38;;;;;;;;;;;;;;;-144.19;88.19;78357.09;6207073;23;20325;-84
2022/03/10 08:40:12;;;;;;;;;;;;;;;-144.19;88.30;78349.22;6181370;23;19927;-84
2022/03/10 08:42:42;;;;;;;;;;;;;;;-144.19;87.76;78347.25;6180429;23;19915;-83
2022/03/10 08:45:12;;;;;;;;;;;;;;;-144.19;87.30;78303.94;6205647;23;19916;-84
2022/03/10 08:47:40;;;;;;;;;;;;;;;-144.19;87.08;78294.06;6205687;23;19916;-84
2022/03/10 08:50:10;;;;;;;;;;;;;;;-144.19;82.05;78256.66;6180267;23;19960;-83
2022/03/10 08:52:47;;;;;;;;;;;;;;;-144.19;79.33;78225.16;6206226;23;19916;-84
2022/03/10 08:55:20;;;;;;;;;;;;;;;-144.19;77.38;78195.63;6205579;23;19916;-83
2022/03/10 08:57:52;;;;;;;;;;;;;;;-144.19;76.10;78181.84;6178855;23;19920;-84
2022/03/10 09:04:05;;;;;;;;;;;;;;;-144.19;72.79;78110.94;6107255;23;19924;-83
2022/03/10 09:06:45;;;;;;;;;;;;;;;-144.19;72.50;78107.00;6169655;23;19916;-84
2022/03/10 09:09:20;;;;;;;;;;;;;;;-144.19;71.52;78095.19;6205243;23;19916;-83
2022/03/10 09:11:49;;;;;;;;;;;;;;;-144.19;71.61;78067.63;6205067;23;19943;-83
2022/03/10 09:14:16;;;;;;;;;;;;;;;-144.19;69.15;78065.66;6203935;23;19923;-84
2022/03/10 09:16:51;;;;;;;;;;;;;;;-144.19;67.73;78028.22;6181228;23;19916;-84
2022/03/10 09:19:18;;;;;;;;;;;;;;;-144.19;67.29;78016.41;6206249;23;20345;-84
2022/03/10 09:21:45;;;;;;;;;;;;;;;-144.19;66.70;77992.78;6180120;23;19916;-83
2022/03/10 09:24:12;;;;;;;;;;;;;;;-144.19;66.90;77984.91;6206054;23;20117;-84
2022/03/10 09:26:40;;;;;;;;;;;;;;;-144.19;66.82;77953.41;6180840;23;19936;-83
2022/03/10 09:29:07;;;;;;;;;;;;;;;-144.19;65.62;77937.66;6206542;23;19916;-84
2022/03/10 09:31:34;;;;;;;;;;;;;;;-144.19;66.71;77921.91;6205951;23;19923;-84
2022/03/10 09:34:01;;;;;;;;;;;;;;;-144.19;64.67;77910.09;6207365;23;19904;-84
2022/03/10 09:36:28;;;;;;;;;;;;;;;-144.19;62.42;77868.75;6182137;23;19923;-83
2022/03/10 09:38:55;;;;;;;;;;;;;;;-144.19;62.42;77868.75;6207285;23;19979;-84
2022/03/10 09:41:25;;;;;;;;;;;;;;;-144.19;63.61;77845.13;6206837;23;19916;-85
2022/03/10 09:43:54;;;;;;;;;;;;;;;-144.19;63.29;77795.88;6206521;23;19939;-84
2022/03/10 09:46:24;;;;;;;;;;;;;;;-144.19;62.12;77799.81;6180564;23;19968;-84
2022/03/10 09:48:52;;;;;;;;;;;;;;;-144.19;62.71;77772.25;6181179;23;19925;-84
2022/03/10 09:51:22;;;;;;;;;;;;;;;-144.19;64.49;77752.56;6176801;23;19916;-84
2022/03/10 09:53:58;;;;;;;;;;;;;;;-144.19;63.45;77717.13;6204596;23;19927;-84
2022/03/10 09:56:26;;;;;;;;;;;;;;;-144.19;63.71;77725.00;6205545;23;19904;-84
2022/03/10 09:58:53;;;;;;;;;;;;;;;-144.19;57.30;77689.56;6205981;23;19919;-84
2022/03/10 10:01:20;;;;;;;;;;;;;;;-144.19;58.54;77677.75;6206181;23;19916;-86
2022/03/10 10:03:48;;;;;;;;;;;;;;;-144.19;56.74;77662.00;6205297;23;19916;-82
2022/03/10 10:06:24;;;;;;;;;;;;;;;-144.19;56.22;77642.31;6179508;23;19927;-85
2022/03/10 10:08:55;;;;;;;;;;;;;;;-144.19;56.10;77618.69;6204257;23;19916;-84
2022/03/10 10:11:32;;;;;;;;;;;;;;;-144.19;52.96;77602.94;6203668;23;19967;-83
2022/03/10 10:14:02;;;;;;;;;;;;;;;-144.19;54.29;77587.19;6177777;23;19916;-83
2022/03/10 10:16:31;;;;;;;;;;;;;;;-144.19;54.74;77551.72;6178034;23;19928;-84
2022/03/10 10:18:58;;;;;;;;;;;;;;;-144.19;52.97;77524.16;6173203;23;19916;-84
2022/03/10 10:21:38;;;;;;;;;;;;;;;-144.19;53.87;77492.66;6175210;23;19924;-83
2022/03/10 10:24:15;;;;;;;;;;;;;;;-144.19;51.63;77465.09;6177052;23;19916;-84
2022/03/10 10:26:42;;;;;;;;;;;;;;;-144.19;51.67;77433.59;6179155;23;19943;-83
2022/03/10 10:29:26;;;;;;;;;;;;;;;-144.19;50.50;77394.22;6180249;23;19916;-83
2022/03/10 10:32:00;;;;;;;;;;;;;;;-144.19;51.85;77327.28;6180431;23;19904;-82
2022/03/10 10:34:56;;;;;;;;;;;;;;;-144.19;49.18;77280.03;6204889;23;19922;-83
2022/03/10 10:37:23;;;;;;;;;;;;;;;-144.19;48.05;77238.69;6179766;23;19962;-82
2022/03/10 10:40:02;;;;;;;;;;;;;;;-144.19;44.51;77260.34;6180508;23;19916;-82
2022/03/10 10:42:31;;;;;;;;;;;;;;;-144.19;45.26;77189.47;6204404;23;19912;-83
2022/03/10 10:45:19;;;;;;;;;;;;;;;-144.19;45.99;77087.09;6181279;23;19916;-84
2022/03/10 10:47:58;;;;;;;;;;;;;;;-144.19;45.19;76976.84;6184966;23;19916;-84
2022/03/10 10:50:30;;;;;;;;;;;;;;;-144.19;45.13;76929.63;6180618;23;19916;-83
2022/03/10 10:53:03;;;;;;;;;;;;;;;-144.19;42.90;76862.69;6179617;23;20210;-84
2022/03/10 10:55:41;;;;;;;;;;;;;;;-144.19;41.31;76917.81;6206622;23;19923;-84
2022/03/10 10:58:09;;;;;;;;;;;;;;;-144.19;39.63;76947.34;6205416;23;19920;-83
2022/03/10 11:00:42;;;;;;;;;;;;;;;-144.19;38.42;76886.31;6204378;23;19929;-84
2022/03/10 11:06:46;;;;;;;;;;;;;;;-144.19;37.78;76823.31;6107697;23;19920;-85
2022/03/10 11:09:13;;;;;;;;;;;;;;;-144.19;38.35;76715.03;6171994;23;19984;-89
2022/03/10 11:11:40;;;;;;;;;;;;;;;-144.19;36.35;76736.69;6156530;23;20026;-88
2022/03/10 11:14:06;;;;;;;;;;;;;;;-144.19;35.20;76724.88;6180932;23;19921;-90
2022/03/10 11:16:32;;;;;;;;;;;;;;;-144.19;36.63;76720.94;6158288;23;19916;-88
2022/03/10 11:19:01;;;;;;;;;;;;;;;-144.19;34.78;76732.75;6160597;23;20276;-90
2022/03/10 11:21:41;;;;;;;;;;;;;;;-144.19;33.47;76646.16;6182949;23;19944;-90
2022/03/10 11:24:10;;;;;;;;;;;;;;;-144.19;35.58;76809.53;6184524;23;19927;-89
2022/03/10 11:26:43;;;;;;;;;;;;;;;-144.19;34.22;76638.28;6158775;23;19924;-90
2022/03/10 11:29:19;;;;;;;;;;;;;;;-144.19;35.09;76689.44;6187359;23;19960;-92
2022/03/10 11:31:47;;;;;;;;;;;;;;;-144.19;35.31;76496.53;6188125;23;19972;-90
2022/03/10 11:34:46;;;;;;;;;;;;;;;-144.19;33.58;76642.22;6185003;23;19916;-91
2022/03/10 11:37:33;;;;;;;;;;;;;;;-144.19;33.99;76650.09;6151617;23;19992;-90
2022/03/10 11:39:59;;;;;;;;;;;;;;;-144.19;33.88;76512.28;6184854;23;19980;-89
2022/03/10 11:42:28;;;;;;;;;;;;;;;-144.19;33.70;76514.25;6185872;23;19916;-87
2022/03/10 11:45:07;;;;;;;;;;;;;;;-144.19;33.44;76445.38;6159455;23;19928;-86
2022/03/10 11:47:33;;;;;;;;;;;;;;;-144.19;33.23;76665.84;6160139;23;19995;-88
2022/03/10 11:50:20;;;;;;;;;;;;;;;-144.19;33.85;76630.41;6185506;23;19948;-89
2022/03/10 11:52:50;;;;;;;;;;;;;;;-144.19;32.62;76841.03;6181694;23;19927;-88
2022/03/10 11:55:17;;;;;;;;;;;;;;;-144.19;35.20;76835.13;6159250;23;19942;-86
2022/03/10 11:57:53;;;;;;;;;;;;;;;-144.19;33.43;76748.50;6159775;23;19924;-89
2022/03/10 12:00:23;;;;;;;;;;;;;;;-144.19;32.41;76685.53;6157247;23;19985;-89
2022/03/10 12:02:58;;;;;;;;;;;;;;;-144.19;34.30;76689.44;6182534;23;19920;-88
2022/03/10 12:05:25;;;;;;;;;;;;;;;-144.19;34.05;76697.31;6182070;23;19971;-87
2022/03/10 12:07:53;;;;;;;;;;;;;;;-144.19;32.56;76604.81;6160889;23;19916;-88
2022/03/10 12:10:22;;;;;;;;;;;;;;;-144.19;33.49;76764.25;6182261;23;20003;-88
2022/03/10 12:12:48;;;;;;;;;;;;;;;-144.19;33.89;76598.91;6159749;23;19979;-86
2022/03/10 12:15:20;;;;;;;;;;;;;;;-144.19;32.92;76575.28;6160070;23;20260;-89
2022/03/10 12:17:52;;;;;;;;;;;;;;;-144.19;32.51;76472.94;6156723;23;19927;-87
2022/03/10 12:20:23;;;;;;;;;;;;;;;-144.19;31.93;76469.00;6157786;23;19916;-88
2022/03/10 12:23:15;;;;;;;;;;;;;;;-144.19;31.87;76535.91;6179914;23;19987;-89
2022/03/10 12:25:55;;;;;;;;;;;;;;;-144.19;32.76;76524.09;6157029;23;19928;-87
2022/03/10 12:28:26;;;;;;;;;;;;;;;-144.19;32.47;76587.09;6182048;23;19955;-88
2022/03/10 12:31:01;;;;;;;;;;;;;;;-144.19;33.02;76598.91;6159159;23;19926;-90
2022/03/10 12:33:28;;;;;;;;;;;;;;;-144.19;32.94;76618.59;6182846;23;20036;-89
2022/03/10 12:35:55;;;;;;;;;;;;;;;-144.19;32.78;76589.06;6183101;23;19988;-89
2022/03/10 12:38:44;;;;;;;;;;;;;;;-144.19;33.38;76652.06;6160936;23;19916;-87
2022/03/10 12:41:10;;;;;;;;;;;;;;;-144.19;33.49;76667.81;6182086;23;19917;-87
2022/03/10 12:43:37;;;;;;;;;;;;;;;-144.19;33.18;76882.38;6180441;23;20003;-86